Airfield :
LOGIN :

Register | Disclaimer

   EN    FR    IT 

 










Legend :    VFR   Marginal VFR   IFR   Intensive IFR   Very Intensive IFR
Visi :
Ceiling :
>= 8 km
>= 3000ft
5 to 8 km
1000 to 3000 ft
1500m to 5 km
500 to 1000 ft
800 to 1500m
200 to 500 ft
< 800m
< 200 ft
Symbols :   Thunderstorms  Fog  Heavy snow  Heavy precipitations  Wind > 20 kt
SIGMETs :     Misc.  Thunderstorms  Icing  Turbulence  Mountain Waves  Volcanic Ashes






- Airport Elevation : 270 ft
- IATA code : OXF


EGTK - Oxford (Kidlington)

CURRENT METAR :
  • 221020Z 36005KT 340V050 0300 R19/1500 FG VV/// 07/07 Q1038

EXPIRED METARs :
  • 220950Z 01004KT 0300 R19/1300 FG VV/// 06/06 Q1037
  • 220920Z 35004KT 0150 R19/0700 FG VV/// 06/06 Q1037
  • 220850Z 34003KT 0200 R19/0550 FG VV/// 06/06 Q1037
  • 220820Z VRB02KT 0100 R19/0500 FG VV/// 05/05 Q1037
  • 220750Z 23002KT 0050 R19/0600 FG OVC001 05/05 Q1037

TAF TAF EGTK
Valid from the 22 at 09:00 until the 22 at 18:00 UTC


220800Z 2209/2218 VRB03KT 4000 BR BKN004
TEMPO 2209/2212 1400 -DZ
PROB30 2209/2211 0300 FG VV///
BECMG 2212/2215 8000 NSW BKN005
PROB40
TEMPO 2215/2218 4000 BR



MET'MAP, your aeronautical weather chart ! - Copyright ORBIFLY December 2007 - Disclaimer

ORBIFLY MET'MAP TEAM :

Programming & Development : Alexandra Zaïnal
Concept & original design : Baudouin d'Aumeries
Assistance for programming : Marc-Olivier Méhu
Technical & hardware support : Manuel Goepfert

Contact : metmap@orbifly.com




SOURCES & CREDITS :

   NOAA